sensor_id;sensor_type;location;lat;lon;timestamp;P1;durP1;ratioP1;P2;durP2;ratioP2
31978;SDS011;18502;43.574;1.276;2024-03-02T00:01:12;8.00;;;4.82;;
31978;SDS011;18502;43.574;1.276;2024-03-02T00:03:38;8.80;;;4.43;;
31978;SDS011;18502;43.574;1.276;2024-03-02T00:06:05;7.65;;;4.35;;
31978;SDS011;18502;43.574;1.276;2024-03-02T00:08:32;8.65;;;4.43;;
31978;SDS011;18502;43.574;1.276;2024-03-02T00:10:58;7.50;;;4.03;;
31978;SDS011;18502;43.574;1.276;2024-03-02T00:13:25;10.18;;;4.63;;
31978;SDS011;18502;43.574;1.276;2024-03-02T00:15:55;108.90;;;41.47;;
31978;SDS011;18502;43.574;1.276;2024-03-02T00:18:24;111.90;;;41.00;;
31978;SDS011;18502;43.574;1.276;2024-03-02T00:20:55;47.08;;;19.50;;
31978;SDS011;18502;43.574;1.276;2024-03-02T00:23:22;7.85;;;3.63;;
31978;SDS011;18502;43.574;1.276;2024-03-02T00:25:52;10.60;;;3.92;;
31978;SDS011;18502;43.574;1.276;2024-03-02T00:28:25;31.60;;;12.65;;
31978;SDS011;18502;43.574;1.276;2024-03-02T00:30:56;34.13;;;12.52;;
31978;SDS011;18502;43.574;1.276;2024-03-02T00:33:30;12.93;;;4.88;;
31978;SDS011;18502;43.574;1.276;2024-03-02T00:36:05;9.90;;;2.53;;
31978;SDS011;18502;43.574;1.276;2024-03-02T00:38:32;7.22;;;2.60;;
31978;SDS011;18502;43.574;1.276;2024-03-02T00:40:59;6.18;;;2.47;;
31978;SDS011;18502;43.574;1.276;2024-03-02T00:46:09;8.70;;;3.40;;
31978;SDS011;18502;43.574;1.276;2024-03-02T00:48:39;6.82;;;3.47;;
31978;SDS011;18502;43.574;1.276;2024-03-02T00:51:12;5.57;;;3.10;;
31978;SDS011;18502;43.574;1.276;2024-03-02T00:53:38;6.13;;;3.35;;
31978;SDS011;18502;43.574;1.276;2024-03-02T00:56:03;5.47;;;2.92;;
31978;SDS011;18502;43.574;1.276;2024-03-02T00:58:34;11.88;;;2.78;;
31978;SDS011;18502;43.574;1.276;2024-03-02T01:00:59;7.20;;;2.55;;
31978;SDS011;18502;43.574;1.276;2024-03-02T01:03:25;6.43;;;2.50;;
31978;SDS011;18502;43.574;1.276;2024-03-02T01:05:51;8.40;;;2.20;;
31978;SDS011;18502;43.574;1.276;2024-03-02T01:08:16;6.43;;;2.95;;
31978;SDS011;18502;43.574;1.276;2024-03-02T01:10:42;6.18;;;3.22;;
31978;SDS011;18502;43.574;1.276;2024-03-02T01:13:08;5.32;;;2.67;;
31978;SDS011;18502;43.574;1.276;2024-03-02T01:15:34;4.13;;;2.45;;
31978;SDS011;18502;43.574;1.276;2024-03-02T01:18:00;5.00;;;2.30;;
31978;SDS011;18502;43.574;1.276;2024-03-02T01:20:25;6.75;;;2.20;;
31978;SDS011;18502;43.574;1.276;2024-03-02T01:22:52;4.82;;;2.17;;
31978;SDS011;18502;43.574;1.276;2024-03-02T01:25:18;3.17;;;1.55;;
31978;SDS011;18502;43.574;1.276;2024-03-02T01:27:44;3.10;;;1.60;;
31978;SDS011;18502;43.574;1.276;2024-03-02T01:30:09;7.05;;;1.60;;
31978;SDS011;18502;43.574;1.276;2024-03-02T01:32:37;4.43;;;1.95;;
31978;SDS011;18502;43.574;1.276;2024-03-02T01:35:04;4.15;;;1.20;;
31978;SDS011;18502;43.574;1.276;2024-03-02T01:37:30;6.07;;;1.80;;
31978;SDS011;18502;43.574;1.276;2024-03-02T01:39:55;4.95;;;1.20;;
31978;SDS011;18502;43.574;1.276;2024-03-02T01:42:21;4.57;;;1.60;;
31978;SDS011;18502;43.574;1.276;2024-03-02T01:44:47;5.85;;;1.48;;
31978;SDS011;18502;43.574;1.276;2024-03-02T01:47:13;4.63;;;1.25;;
31978;SDS011;18502;43.574;1.276;2024-03-02T01:49:38;4.05;;;1.08;;
31978;SDS011;18502;43.574;1.276;2024-03-02T01:52:06;4.13;;;1.40;;
31978;SDS011;18502;43.574;1.276;2024-03-02T01:54:32;7.60;;;1.17;;
31978;SDS011;18502;43.574;1.276;2024-03-02T01:56:57;3.17;;;1.27;;
31978;SDS011;18502;43.574;1.276;2024-03-02T01:59:23;5.55;;;1.25;;
31978;SDS011;18502;43.574;1.276;2024-03-02T02:01:49;3.70;;;1.38;;
31978;SDS011;18502;43.574;1.276;2024-03-02T02:04:15;2.90;;;1.00;;
31978;SDS011;18502;43.574;1.276;2024-03-02T02:06:41;3.00;;;1.23;;
31978;SDS011;18502;43.574;1.276;2024-03-02T02:09:08;4.10;;;1.13;;
31978;SDS011;18502;43.574;1.276;2024-03-02T02:11:34;4.03;;;1.15;;
31978;SDS011;18502;43.574;1.276;2024-03-02T02:14:00;6.63;;;1.08;;
31978;SDS011;18502;43.574;1.276;2024-03-02T02:16:25;8.48;;;1.48;;
31978;SDS011;18502;43.574;1.276;2024-03-02T02:18:51;4.35;;;0.90;;
31978;SDS011;18502;43.574;1.276;2024-03-02T02:21:16;2.70;;;0.90;;
31978;SDS011;18502;43.574;1.276;2024-03-02T02:23:42;2.90;;;0.85;;
31978;SDS011;18502;43.574;1.276;2024-03-02T02:26:11;6.10;;;1.35;;
31978;SDS011;18502;43.574;1.276;2024-03-02T02:28:37;2.35;;;0.90;;
31978;SDS011;18502;43.574;1.276;2024-03-02T02:31:03;4.53;;;1.02;;
31978;SDS011;18502;43.574;1.276;2024-03-02T02:33:28;4.78;;;1.65;;
31978;SDS011;18502;43.574;1.276;2024-03-02T02:35:54;2.70;;;0.90;;
31978;SDS011;18502;43.574;1.276;2024-03-02T02:38:20;3.17;;;0.88;;
31978;SDS011;18502;43.574;1.276;2024-03-02T02:40:45;5.47;;;0.80;;
31978;SDS011;18502;43.574;1.276;2024-03-02T02:43:11;6.28;;;1.00;;
31978;SDS011;18502;43.574;1.276;2024-03-02T02:45:37;4.30;;;1.20;;
31978;SDS011;18502;43.574;1.276;2024-03-02T02:48:02;4.40;;;1.00;;
31978;SDS011;18502;43.574;1.276;2024-03-02T02:50:28;2.75;;;1.00;;
31978;SDS011;18502;43.574;1.276;2024-03-02T02:52:54;6.40;;;1.52;;
31978;SDS011;18502;43.574;1.276;2024-03-02T02:55:19;3.50;;;0.95;;
31978;SDS011;18502;43.574;1.276;2024-03-02T02:57:45;10.70;;;1.92;;
31978;SDS011;18502;43.574;1.276;2024-03-02T03:00:12;3.78;;;1.52;;
31978;SDS011;18502;43.574;1.276;2024-03-02T03:02:40;5.50;;;2.25;;
31978;SDS011;18502;43.574;1.276;2024-03-02T03:05:07;5.40;;;2.20;;
31978;SDS011;18502;43.574;1.276;2024-03-02T03:07:34;5.28;;;1.58;;
31978;SDS011;18502;43.574;1.276;2024-03-02T03:10:00;5.00;;;1.83;;
31978;SDS011;18502;43.574;1.276;2024-03-02T03:12:26;6.88;;;1.83;;
31978;SDS011;18502;43.574;1.276;2024-03-02T03:14:52;6.40;;;1.70;;
31978;SDS011;18502;43.574;1.276;2024-03-02T03:17:17;8.48;;;1.73;;
31978;SDS011;18502;43.574;1.276;2024-03-02T03:19:43;4.70;;;1.60;;
31978;SDS011;18502;43.574;1.276;2024-03-02T03:22:09;9.07;;;2.80;;
31978;SDS011;18502;43.574;1.276;2024-03-02T03:24:34;6.80;;;2.80;;
31978;SDS011;18502;43.574;1.276;2024-03-02T03:27:00;7.00;;;3.10;;
31978;SDS011;18502;43.574;1.276;2024-03-02T03:29:26;5.68;;;2.90;;
31978;SDS011;18502;43.574;1.276;2024-03-02T03:31:51;9.90;;;3.95;;
31978;SDS011;18502;43.574;1.276;2024-03-02T03:34:17;7.43;;;3.92;;
31978;SDS011;18502;43.574;1.276;2024-03-02T03:36:42;7.60;;;3.95;;
31978;SDS011;18502;43.574;1.276;2024-03-02T03:39:08;6.63;;;4.88;;
31978;SDS011;18502;43.574;1.276;2024-03-02T03:41:34;6.82;;;3.92;;
31978;SDS011;18502;43.574;1.276;2024-03-02T03:43:59;7.30;;;4.65;;
31978;SDS011;18502;43.574;1.276;2024-03-02T03:46:25;8.40;;;4.80;;
31978;SDS011;18502;43.574;1.276;2024-03-02T03:48:51;7.88;;;4.13;;
31978;SDS011;18502;43.574;1.276;2024-03-02T03:51:16;8.93;;;4.47;;
31978;SDS011;18502;43.574;1.276;2024-03-02T03:53:42;9.55;;;5.15;;
31978;SDS011;18502;43.574;1.276;2024-03-02T03:56:07;9.13;;;4.93;;
31978;SDS011;18502;43.574;1.276;2024-03-02T03:58:33;10.00;;;4.65;;
31978;SDS011;18502;43.574;1.276;2024-03-02T04:00:59;9.10;;;4.93;;
31978;SDS011;18502;43.574;1.276;2024-03-02T04:03:24;7.68;;;4.90;;
31978;SDS011;18502;43.574;1.276;2024-03-02T04:05:50;7.90;;;4.70;;
31978;SDS011;18502;43.574;1.276;2024-03-02T04:08:16;9.93;;;5.05;;
31978;SDS011;18502;43.574;1.276;2024-03-02T04:10:41;10.55;;;5.03;;
31978;SDS011;18502;43.574;1.276;2024-03-02T04:13:07;12.43;;;5.50;;
31978;SDS011;18502;43.574;1.276;2024-03-02T04:15:33;11.07;;;4.78;;
31978;SDS011;18502;43.574;1.276;2024-03-02T04:17:58;8.10;;;4.80;;
31978;SDS011;18502;43.574;1.276;2024-03-02T04:20:24;7.10;;;5.07;;
31978;SDS011;18502;43.574;1.276;2024-03-02T04:22:50;13.93;;;5.53;;
31978;SDS011;18502;43.574;1.276;2024-03-02T04:25:16;9.82;;;5.63;;
31978;SDS011;18502;43.574;1.276;2024-03-02T04:27:41;9.95;;;4.72;;
31978;SDS011;18502;43.574;1.276;2024-03-02T04:30:07;8.60;;;5.13;;
31978;SDS011;18502;43.574;1.276;2024-03-02T04:32:33;9.60;;;5.32;;
31978;SDS011;18502;43.574;1.276;2024-03-02T04:34:58;9.77;;;5.07;;
31978;SDS011;18502;43.574;1.276;2024-03-02T04:37:24;9.35;;;5.38;;
31978;SDS011;18502;43.574;1.276;2024-03-02T04:39:50;7.70;;;5.00;;
31978;SDS011;18502;43.574;1.276;2024-03-02T04:42:16;9.57;;;4.90;;
31978;SDS011;18502;43.574;1.276;2024-03-02T04:44:41;9.70;;;5.20;;
31978;SDS011;18502;43.574;1.276;2024-03-02T04:47:07;8.77;;;5.35;;
31978;SDS011;18502;43.574;1.276;2024-03-02T04:49:33;6.28;;;4.43;;
31978;SDS011;18502;43.574;1.276;2024-03-02T04:51:58;7.55;;;3.83;;
31978;SDS011;18502;43.574;1.276;2024-03-02T04:54:24;9.85;;;5.05;;
31978;SDS011;18502;43.574;1.276;2024-03-02T04:56:50;8.85;;;5.00;;
31978;SDS011;18502;43.574;1.276;2024-03-02T04:59:18;8.45;;;4.72;;
31978;SDS011;18502;43.574;1.276;2024-03-02T05:01:44;6.65;;;4.57;;
31978;SDS011;18502;43.574;1.276;2024-03-02T05:04:10;8.52;;;4.97;;
31978;SDS011;18502;43.574;1.276;2024-03-02T05:06:39;11.32;;;5.05;;
31978;SDS011;18502;43.574;1.276;2024-03-02T05:09:06;8.98;;;5.93;;
31978;SDS011;18502;43.574;1.276;2024-03-02T05:11:32;10.93;;;5.80;;
31978;SDS011;18502;43.574;1.276;2024-03-02T05:14:04;13.68;;;6.00;;
31978;SDS011;18502;43.574;1.276;2024-03-02T05:16:34;11.88;;;6.40;;
31978;SDS011;18502;43.574;1.276;2024-03-02T05:19:08;9.80;;;6.07;;
31978;SDS011;18502;43.574;1.276;2024-03-02T05:21:34;11.48;;;6.43;;
31978;SDS011;18502;43.574;1.276;2024-03-02T05:24:00;11.75;;;5.82;;
31978;SDS011;18502;43.574;1.276;2024-03-02T05:26:26;10.23;;;5.97;;
31978;SDS011;18502;43.574;1.276;2024-03-02T05:28:51;9.20;;;5.22;;
31978;SDS011;18502;43.574;1.276;2024-03-02T05:31:18;8.90;;;6.03;;
31978;SDS011;18502;43.574;1.276;2024-03-02T05:33:43;12.00;;;6.25;;
31978;SDS011;18502;43.574;1.276;2024-03-02T05:36:09;11.40;;;6.68;;
31978;SDS011;18502;43.574;1.276;2024-03-02T05:38:35;10.52;;;5.45;;
31978;SDS011;18502;43.574;1.276;2024-03-02T05:41:01;7.15;;;4.70;;
31978;SDS011;18502;43.574;1.276;2024-03-02T05:43:27;11.77;;;5.30;;
31978;SDS011;18502;43.574;1.276;2024-03-02T05:45:52;11.45;;;5.32;;
31978;SDS011;18502;43.574;1.276;2024-03-02T05:48:18;11.48;;;5.78;;
31978;SDS011;18502;43.574;1.276;2024-03-02T05:50:44;12.10;;;5.97;;
31978;SDS011;18502;43.574;1.276;2024-03-02T05:53:09;9.70;;;5.47;;
31978;SDS011;18502;43.574;1.276;2024-03-02T05:55:35;9.00;;;5.35;;
31978;SDS011;18502;43.574;1.276;2024-03-02T05:58:01;7.50;;;5.40;;
31978;SDS011;18502;43.574;1.276;2024-03-02T06:00:45;10.40;;;5.47;;
31978;SDS011;18502;43.574;1.276;2024-03-02T06:03:11;9.82;;;5.45;;
31978;SDS011;18502;43.574;1.276;2024-03-02T06:05:36;9.63;;;6.03;;
31978;SDS011;18502;43.574;1.276;2024-03-02T06:08:02;13.52;;;6.55;;
31978;SDS011;18502;43.574;1.276;2024-03-02T06:10:28;14.02;;;7.47;;
31978;SDS011;18502;43.574;1.276;2024-03-02T06:12:54;11.73;;;6.93;;
31978;SDS011;18502;43.574;1.276;2024-03-02T06:15:19;16.05;;;6.90;;
31978;SDS011;18502;43.574;1.276;2024-03-02T06:17:45;10.63;;;5.80;;
31978;SDS011;18502;43.574;1.276;2024-03-02T06:20:10;9.18;;;5.15;;
31978;SDS011;18502;43.574;1.276;2024-03-02T06:22:36;12.15;;;5.68;;
31978;SDS011;18502;43.574;1.276;2024-03-02T06:25:02;11.60;;;5.43;;
31978;SDS011;18502;43.574;1.276;2024-03-02T06:27:28;11.20;;;5.10;;
31978;SDS011;18502;43.574;1.276;2024-03-02T06:29:53;11.73;;;5.28;;
31978;SDS011;18502;43.574;1.276;2024-03-02T06:32:19;9.95;;;5.75;;
31978;SDS011;18502;43.574;1.276;2024-03-02T06:34:45;10.52;;;5.20;;
31978;SDS011;18502;43.574;1.276;2024-03-02T06:37:11;10.63;;;5.65;;
31978;SDS011;18502;43.574;1.276;2024-03-02T06:39:38;12.50;;;5.63;;
31978;SDS011;18502;43.574;1.276;2024-03-02T06:42:03;9.90;;;4.60;;
31978;SDS011;18502;43.574;1.276;2024-03-02T06:44:29;11.60;;;5.65;;
31978;SDS011;18502;43.574;1.276;2024-03-02T06:46:55;9.65;;;4.72;;
31978;SDS011;18502;43.574;1.276;2024-03-02T06:49:20;6.93;;;4.28;;
31978;SDS011;18502;43.574;1.276;2024-03-02T06:51:46;7.18;;;4.10;;
31978;SDS011;18502;43.574;1.276;2024-03-02T06:54:11;6.82;;;5.00;;
31978;SDS011;18502;43.574;1.276;2024-03-02T06:56:37;9.55;;;4.03;;
31978;SDS011;18502;43.574;1.276;2024-03-02T06:59:04;9.38;;;4.65;;
31978;SDS011;18502;43.574;1.276;2024-03-02T07:01:29;8.85;;;5.35;;
31978;SDS011;18502;43.574;1.276;2024-03-02T07:03:55;11.45;;;5.75;;
31978;SDS011;18502;43.574;1.276;2024-03-02T07:06:20;13.30;;;5.97;;
31978;SDS011;18502;43.574;1.276;2024-03-02T07:08:46;8.50;;;4.47;;
31978;SDS011;18502;43.574;1.276;2024-03-02T07:11:12;8.77;;;4.47;;
31978;SDS011;18502;43.574;1.276;2024-03-02T07:13:37;10.13;;;5.10;;
31978;SDS011;18502;43.574;1.276;2024-03-02T07:16:03;7.57;;;4.35;;
31978;SDS011;18502;43.574;1.276;2024-03-02T07:18:29;5.75;;;4.20;;
31978;SDS011;18502;43.574;1.276;2024-03-02T07:20:56;9.82;;;4.88;;
31978;SDS011;18502;43.574;1.276;2024-03-02T07:25:52;8.88;;;4.55;;
31978;SDS011;18502;43.574;1.276;2024-03-02T07:28:25;7.00;;;4.73;;
31978;SDS011;18502;43.574;1.276;2024-03-02T07:30:58;13.35;;;6.15;;
31978;SDS011;18502;43.574;1.276;2024-03-02T07:33:24;16.40;;;7.88;;
31978;SDS011;18502;43.574;1.276;2024-03-02T07:35:50;7.22;;;4.20;;
31978;SDS011;18502;43.574;1.276;2024-03-02T07:38:16;8.05;;;4.15;;
31978;SDS011;18502;43.574;1.276;2024-03-02T07:40:42;5.53;;;3.80;;
31978;SDS011;18502;43.574;1.276;2024-03-02T07:43:08;4.97;;;3.20;;
31978;SDS011;18502;43.574;1.276;2024-03-02T07:45:34;6.63;;;3.72;;
31978;SDS011;18502;43.574;1.276;2024-03-02T07:48:03;7.03;;;4.25;;
31978;SDS011;18502;43.574;1.276;2024-03-02T07:50:29;7.32;;;3.15;;
31978;SDS011;18502;43.574;1.276;2024-03-02T07:53:00;10.40;;;3.45;;
31978;SDS011;18502;43.574;1.276;2024-03-02T07:55:26;8.10;;;3.08;;
31978;SDS011;18502;43.574;1.276;2024-03-02T07:57:52;5.07;;;3.28;;
31978;SDS011;18502;43.574;1.276;2024-03-02T08:00:18;6.32;;;3.38;;
31978;SDS011;18502;43.574;1.276;2024-03-02T08:02:43;7.18;;;3.58;;
31978;SDS011;18502;43.574;1.276;2024-03-02T08:05:09;7.00;;;3.67;;
31978;SDS011;18502;43.574;1.276;2024-03-02T08:07:35;6.20;;;3.45;;
31978;SDS011;18502;43.574;1.276;2024-03-02T08:10:01;7.13;;;3.40;;
31978;SDS011;18502;43.574;1.276;2024-03-02T08:12:26;5.70;;;3.60;;
31978;SDS011;18502;43.574;1.276;2024-03-02T08:14:52;5.85;;;2.60;;
31978;SDS011;18502;43.574;1.276;2024-03-02T08:17:18;6.55;;;3.10;;
31978;SDS011;18502;43.574;1.276;2024-03-02T08:19:43;5.57;;;3.28;;
31978;SDS011;18502;43.574;1.276;2024-03-02T08:22:09;8.30;;;2.60;;
31978;SDS011;18502;43.574;1.276;2024-03-02T08:24:35;8.02;;;3.25;;
31978;SDS011;18502;43.574;1.276;2024-03-02T08:27:01;4.30;;;2.67;;
31978;SDS011;18502;43.574;1.276;2024-03-02T08:29:27;6.72;;;2.33;;
31978;SDS011;18502;43.574;1.276;2024-03-02T08:31:53;4.18;;;2.28;;
31978;SDS011;18502;43.574;1.276;2024-03-02T08:34:19;5.57;;;2.45;;
31978;SDS011;18502;43.574;1.276;2024-03-02T08:36:45;9.23;;;2.58;;
31978;SDS011;18502;43.574;1.276;2024-03-02T08:39:11;6.82;;;2.40;;
31978;SDS011;18502;43.574;1.276;2024-03-02T08:41:46;7.57;;;3.22;;
31978;SDS011;18502;43.574;1.276;2024-03-02T08:44:12;7.05;;;3.47;;
31978;SDS011;18502;43.574;1.276;2024-03-02T08:46:39;4.97;;;2.63;;
31978;SDS011;18502;43.574;1.276;2024-03-02T08:49:05;8.30;;;2.67;;
31978;SDS011;18502;43.574;1.276;2024-03-02T08:51:31;10.43;;;3.47;;
31978;SDS011;18502;43.574;1.276;2024-03-02T08:53:57;9.75;;;3.33;;
31978;SDS011;18502;43.574;1.276;2024-03-02T08:56:23;8.85;;;3.35;;
31978;SDS011;18502;43.574;1.276;2024-03-02T08:58:49;5.80;;;2.83;;
31978;SDS011;18502;43.574;1.276;2024-03-02T09:01:15;6.32;;;2.88;;
31978;SDS011;18502;43.574;1.276;2024-03-02T09:03:42;9.75;;;3.05;;
31978;SDS011;18502;43.574;1.276;2024-03-02T09:06:11;6.95;;;3.03;;
31978;SDS011;18502;43.574;1.276;2024-03-02T09:08:37;5.95;;;3.20;;
31978;SDS011;18502;43.574;1.276;2024-03-02T09:11:04;10.98;;;3.15;;
31978;SDS011;18502;43.574;1.276;2024-03-02T09:13:33;8.05;;;2.78;;
31978;SDS011;18502;43.574;1.276;2024-03-02T09:15:59;12.18;;;3.08;;
31978;SDS011;18502;43.574;1.276;2024-03-02T09:18:24;7.85;;;2.40;;
31978;SDS011;18502;43.574;1.276;2024-03-02T09:20:50;6.68;;;2.60;;
31978;SDS011;18502;43.574;1.276;2024-03-02T09:23:15;10.75;;;3.58;;
31978;SDS011;18502;43.574;1.276;2024-03-02T09:25:41;6.68;;;2.63;;
31978;SDS011;18502;43.574;1.276;2024-03-02T09:28:07;5.28;;;2.28;;
31978;SDS011;18502;43.574;1.276;2024-03-02T09:30:32;5.38;;;2.78;;
31978;SDS011;18502;43.574;1.276;2024-03-02T09:32:58;12.27;;;3.40;;
31978;SDS011;18502;43.574;1.276;2024-03-02T09:35:24;8.68;;;2.78;;
31978;SDS011;18502;43.574;1.276;2024-03-02T09:37:50;7.93;;;3.25;;
31978;SDS011;18502;43.574;1.276;2024-03-02T09:40:16;12.20;;;4.00;;
31978;SDS011;18502;43.574;1.276;2024-03-02T09:42:41;11.55;;;2.80;;
31978;SDS011;18502;43.574;1.276;2024-03-02T09:45:08;7.18;;;3.15;;
31978;SDS011;18502;43.574;1.276;2024-03-02T09:47:35;8.30;;;3.67;;
31978;SDS011;18502;43.574;1.276;2024-03-02T09:50:01;16.35;;;4.25;;
31978;SDS011;18502;43.574;1.276;2024-03-02T09:52:26;12.00;;;3.42;;
31978;SDS011;18502;43.574;1.276;2024-03-02T09:54:52;9.27;;;5.32;;
31978;SDS011;18502;43.574;1.276;2024-03-02T09:57:18;8.63;;;2.75;;
31978;SDS011;18502;43.574;1.276;2024-03-02T09:59:44;8.20;;;4.05;;
31978;SDS011;18502;43.574;1.276;2024-03-02T10:02:10;15.43;;;3.60;;
31978;SDS011;18502;43.574;1.276;2024-03-02T10:04:36;12.35;;;2.90;;
31978;SDS011;18502;43.574;1.276;2024-03-02T10:07:14;13.30;;;3.85;;
31978;SDS011;18502;43.574;1.276;2024-03-02T10:09:41;8.65;;;3.40;;
31978;SDS011;18502;43.574;1.276;2024-03-02T10:12:08;8.50;;;3.45;;
31978;SDS011;18502;43.574;1.276;2024-03-02T10:14:36;9.63;;;3.92;;
31978;SDS011;18502;43.574;1.276;2024-03-02T10:17:03;13.52;;;4.43;;
31978;SDS011;18502;43.574;1.276;2024-03-02T10:19:36;15.02;;;4.47;;
31978;SDS011;18502;43.574;1.276;2024-03-02T10:22:06;10.63;;;3.80;;
31978;SDS011;18502;43.574;1.276;2024-03-02T10:24:37;10.88;;;4.13;;
31978;SDS011;18502;43.574;1.276;2024-03-02T10:27:14;9.48;;;4.07;;
31978;SDS011;18502;43.574;1.276;2024-03-02T10:29:51;16.88;;;4.32;;
31978;SDS011;18502;43.574;1.276;2024-03-02T10:32:17;11.27;;;3.72;;
31978;SDS011;18502;43.574;1.276;2024-03-02T10:34:44;9.10;;;3.30;;
31978;SDS011;18502;43.574;1.276;2024-03-02T10:37:11;10.73;;;3.83;;
31978;SDS011;18502;43.574;1.276;2024-03-02T10:39:37;13.63;;;3.40;;
31978;SDS011;18502;43.574;1.276;2024-03-02T10:42:07;19.08;;;4.43;;
31978;SDS011;18502;43.574;1.276;2024-03-02T10:44:33;10.25;;;4.05;;
31978;SDS011;18502;43.574;1.276;2024-03-02T10:47:01;13.60;;;4.30;;
31978;SDS011;18502;43.574;1.276;2024-03-02T10:49:31;12.77;;;3.65;;
31978;SDS011;18502;43.574;1.276;2024-03-02T10:51:58;13.85;;;4.93;;
31978;SDS011;18502;43.574;1.276;2024-03-02T10:54:24;10.98;;;3.22;;
31978;SDS011;18502;43.574;1.276;2024-03-02T10:57:00;9.27;;;2.95;;
31978;SDS011;18502;43.574;1.276;2024-03-02T10:59:34;14.77;;;3.90;;
31978;SDS011;18502;43.574;1.276;2024-03-02T11:02:02;13.13;;;3.35;;
31978;SDS011;18502;43.574;1.276;2024-03-02T11:04:29;12.27;;;4.03;;
31978;SDS011;18502;43.574;1.276;2024-03-02T11:06:58;8.05;;;3.58;;
31978;SDS011;18502;43.574;1.276;2024-03-02T11:09:29;8.55;;;3.25;;
31978;SDS011;18502;43.574;1.276;2024-03-02T11:12:02;27.33;;;5.47;;
31978;SDS011;18502;43.574;1.276;2024-03-02T11:14:34;15.07;;;4.63;;
31978;SDS011;18502;43.574;1.276;2024-03-02T11:17:05;11.15;;;3.13;;
31978;SDS011;18502;43.574;1.276;2024-03-02T11:19:33;7.82;;;2.83;;
31978;SDS011;18502;43.574;1.276;2024-03-02T11:21:59;10.43;;;2.75;;
31978;SDS011;18502;43.574;1.276;2024-03-02T11:26:57;11.40;;;3.22;;
31978;SDS011;18502;43.574;1.276;2024-03-02T11:32:02;8.35;;;3.42;;
31978;SDS011;18502;43.574;1.276;2024-03-02T11:34:31;8.52;;;3.10;;
31978;SDS011;18502;43.574;1.276;2024-03-02T11:36:58;11.63;;;2.95;;
31978;SDS011;18502;43.574;1.276;2024-03-02T11:39:26;10.98;;;2.88;;
31978;SDS011;18502;43.574;1.276;2024-03-02T11:41:52;12.25;;;3.00;;
31978;SDS011;18502;43.574;1.276;2024-03-02T11:44:18;10.80;;;3.00;;
31978;SDS011;18502;43.574;1.276;2024-03-02T11:46:51;8.55;;;2.70;;
31978;SDS011;18502;43.574;1.276;2024-03-02T11:49:41;7.22;;;2.45;;
31978;SDS011;18502;43.574;1.276;2024-03-02T11:52:09;6.65;;;2.78;;
31978;SDS011;18502;43.574;1.276;2024-03-02T11:54:36;9.23;;;3.08;;
31978;SDS011;18502;43.574;1.276;2024-03-02T11:57:06;12.00;;;3.15;;
31978;SDS011;18502;43.574;1.276;2024-03-02T11:59:32;8.75;;;3.45;;
31978;SDS011;18502;43.574;1.276;2024-03-02T12:01:58;8.20;;;2.75;;
31978;SDS011;18502;43.574;1.276;2024-03-02T12:04:24;10.98;;;3.17;;
31978;SDS011;18502;43.574;1.276;2024-03-02T12:07:00;7.50;;;2.47;;
31978;SDS011;18502;43.574;1.276;2024-03-02T12:09:29;9.35;;;3.35;;
31978;SDS011;18502;43.574;1.276;2024-03-02T12:12:01;6.18;;;2.25;;
31978;SDS011;18502;43.574;1.276;2024-03-02T12:14:29;8.23;;;1.98;;
31978;SDS011;18502;43.574;1.276;2024-03-02T12:16:55;7.32;;;2.35;;
31978;SDS011;18502;43.574;1.276;2024-03-02T12:19:21;7.68;;;2.35;;
31978;SDS011;18502;43.574;1.276;2024-03-02T12:21:46;8.02;;;2.38;;
31978;SDS011;18502;43.574;1.276;2024-03-02T12:24:12;7.15;;;3.13;;
31978;SDS011;18502;43.574;1.276;2024-03-02T12:26:38;8.43;;;3.22;;
31978;SDS011;18502;43.574;1.276;2024-03-02T12:29:05;9.30;;;3.20;;
31978;SDS011;18502;43.574;1.276;2024-03-02T12:31:30;8.10;;;2.90;;
31978;SDS011;18502;43.574;1.276;2024-03-02T12:33:57;10.30;;;2.97;;
31978;SDS011;18502;43.574;1.276;2024-03-02T12:36:23;8.77;;;2.35;;
31978;SDS011;18502;43.574;1.276;2024-03-02T12:38:52;7.25;;;2.78;;
31978;SDS011;18502;43.574;1.276;2024-03-02T12:41:18;7.20;;;2.50;;
31978;SDS011;18502;43.574;1.276;2024-03-02T12:43:43;7.28;;;2.70;;
31978;SDS011;18502;43.574;1.276;2024-03-02T12:46:10;7.53;;;3.08;;
31978;SDS011;18502;43.574;1.276;2024-03-02T12:48:36;6.63;;;2.53;;
31978;SDS011;18502;43.574;1.276;2024-03-02T12:51:04;7.95;;;2.50;;
31978;SDS011;18502;43.574;1.276;2024-03-02T12:53:30;10.65;;;2.45;;
31978;SDS011;18502;43.574;1.276;2024-03-02T12:55:56;5.95;;;2.95;;
31978;SDS011;18502;43.574;1.276;2024-03-02T12:58:22;9.00;;;3.33;;
31978;SDS011;18502;43.574;1.276;2024-03-02T13:00:48;7.10;;;2.90;;
31978;SDS011;18502;43.574;1.276;2024-03-02T13:03:14;8.20;;;2.72;;
31978;SDS011;18502;43.574;1.276;2024-03-02T13:05:43;7.40;;;2.90;;
31978;SDS011;18502;43.574;1.276;2024-03-02T13:08:14;7.10;;;2.85;;
31978;SDS011;18502;43.574;1.276;2024-03-02T13:10:39;6.38;;;2.08;;
31978;SDS011;18502;43.574;1.276;2024-03-02T13:13:06;5.85;;;2.78;;
31978;SDS011;18502;43.574;1.276;2024-03-02T13:15:32;12.95;;;2.45;;
31978;SDS011;18502;43.574;1.276;2024-03-02T13:17:58;7.32;;;2.67;;
31978;SDS011;18502;43.574;1.276;2024-03-02T13:20:30;9.18;;;2.95;;
31978;SDS011;18502;43.574;1.276;2024-03-02T13:22:57;5.25;;;2.42;;
31978;SDS011;18502;43.574;1.276;2024-03-02T13:25:22;10.93;;;2.95;;
31978;SDS011;18502;43.574;1.276;2024-03-02T13:27:48;4.30;;;1.83;;
31978;SDS011;18502;43.574;1.276;2024-03-02T13:30:14;8.60;;;2.33;;
31978;SDS011;18502;43.574;1.276;2024-03-02T13:32:39;7.63;;;2.30;;
31978;SDS011;18502;43.574;1.276;2024-03-02T13:35:05;9.32;;;1.98;;
31978;SDS011;18502;43.574;1.276;2024-03-02T13:37:31;6.78;;;1.77;;
31978;SDS011;18502;43.574;1.276;2024-03-02T13:39:57;9.93;;;3.10;;
31978;SDS011;18502;43.574;1.276;2024-03-02T13:42:23;7.20;;;2.35;;
31978;SDS011;18502;43.574;1.276;2024-03-02T13:44:49;9.45;;;3.38;;
31978;SDS011;18502;43.574;1.276;2024-03-02T13:47:16;7.82;;;2.38;;
31978;SDS011;18502;43.574;1.276;2024-03-02T13:49:42;8.65;;;3.38;;
31978;SDS011;18502;43.574;1.276;2024-03-02T13:52:11;10.82;;;3.40;;
31978;SDS011;18502;43.574;1.276;2024-03-02T13:54:42;14.40;;;3.00;;
31978;SDS011;18502;43.574;1.276;2024-03-02T13:57:09;9.00;;;3.25;;
31978;SDS011;18502;43.574;1.276;2024-03-02T13:59:35;9.85;;;3.20;;
31978;SDS011;18502;43.574;1.276;2024-03-02T14:02:01;9.95;;;2.63;;
31978;SDS011;18502;43.574;1.276;2024-03-02T14:04:31;9.00;;;1.92;;
31978;SDS011;18502;43.574;1.276;2024-03-02T14:06:58;6.05;;;2.45;;
31978;SDS011;18502;43.574;1.276;2024-03-02T14:09:24;8.98;;;2.92;;
31978;SDS011;18502;43.574;1.276;2024-03-02T14:11:50;6.05;;;2.72;;
31978;SDS011;18502;43.574;1.276;2024-03-02T14:14:17;9.23;;;2.28;;
31978;SDS011;18502;43.574;1.276;2024-03-02T14:16:43;9.15;;;3.35;;
31978;SDS011;18502;43.574;1.276;2024-03-02T14:19:10;7.72;;;2.63;;
31978;SDS011;18502;43.574;1.276;2024-03-02T14:21:36;7.53;;;3.13;;
31978;SDS011;18502;43.574;1.276;2024-03-02T14:24:02;9.27;;;2.80;;
31978;SDS011;18502;43.574;1.276;2024-03-02T14:26:29;8.70;;;2.53;;
31978;SDS011;18502;43.574;1.276;2024-03-02T14:28:55;6.45;;;2.80;;
31978;SDS011;18502;43.574;1.276;2024-03-02T14:31:21;9.02;;;2.90;;
31978;SDS011;18502;43.574;1.276;2024-03-02T14:33:46;7.82;;;3.28;;
31978;SDS011;18502;43.574;1.276;2024-03-02T14:36:12;12.18;;;3.17;;
31978;SDS011;18502;43.574;1.276;2024-03-02T14:38:39;11.60;;;2.65;;
31978;SDS011;18502;43.574;1.276;2024-03-02T14:41:04;11.35;;;2.97;;
31978;SDS011;18502;43.574;1.276;2024-03-02T14:43:30;7.65;;;2.67;;
31978;SDS011;18502;43.574;1.276;2024-03-02T14:45:56;8.10;;;2.67;;
31978;SDS011;18502;43.574;1.276;2024-03-02T14:48:24;7.78;;;2.55;;
31978;SDS011;18502;43.574;1.276;2024-03-02T14:50:50;7.43;;;2.72;;